Time;durP1;ratioP1;P1;durP2;ratioP2;P2;SDS_P1;SDS_P2;PMS_P1;PMS_P2;Temp;Humidity;BMP_temperature;BMP_pressure;BME280_temperature;BME280_humidity;BME280_pressure;Samples;Min_cycle;Max_cycle;Signal;HPM_P1;HPM_P2
2022/12/18 00:02:06;;;;;;;59.15;24.27;;;-8.00;99.90;;;;;;4975062;28;20034;-74
2022/12/18 00:04:31;;;;;;;64.43;26.27;;;-8.10;99.90;;;;;;4973511;28;20030;-74
2022/12/18 00:06:57;;;;;;;60.40;25.60;;;-8.10;99.90;;;;;;4972695;28;20023;-74
2022/12/18 00:09:23;;;;;;;73.18;27.70;;;-8.10;99.90;;;;;;4971236;28;20492;-74
2022/12/18 00:11:49;;;;;;;62.75;25.70;;;-8.10;99.90;;;;;;4976340;28;20035;-74
2022/12/18 00:14:14;;;;;;;65.45;26.63;;;-8.10;99.90;;;;;;4989218;28;20077;-73
2022/12/18 00:16:43;;;;;;;67.43;27.17;;;-8.20;99.90;;;;;;4977395;28;20037;-75
2022/12/18 00:19:15;;;;;;;59.83;26.58;;;-8.20;99.90;;;;;;4964805;28;20019;-75
2022/12/18 00:21:43;;;;;;;63.75;26.70;;;-8.30;99.90;;;;;;4967309;28;20019;-74
2022/12/18 00:24:09;;;;;;;64.47;24.45;;;-8.30;99.90;;;;;;4985135;28;20484;-74
2022/12/18 00:26:36;;;;;;;62.65;25.55;;;-8.30;99.90;;;;;;4972196;28;20098;-74
2022/12/18 00:29:20;;;;;;;64.10;24.90;;;-8.30;99.90;;;;;;4976544;28;20022;-75
2022/12/18 00:31:46;;;;;;;63.92;24.35;;;-8.30;99.90;;;;;;4972056;28;20550;-75
2022/12/18 00:34:14;;;;;;;63.60;23.85;;;-8.30;99.90;;;;;;4971419;28;20038;-74
2022/12/18 00:36:47;;;;;;;61.67;24.77;;;-8.40;99.90;;;;;;4971370;28;20023;-74
2022/12/18 00:39:16;;;;;;;61.05;25.85;;;-8.40;99.90;;;;;;4973095;28;20031;-74
2022/12/18 00:44:38;;;;;;;57.78;25.02;;;-8.40;99.90;;;;;;4972555;28;20049;-73
2022/12/18 00:47:03;;;;;;;63.78;24.73;;;-8.40;99.90;;;;;;4988244;28;20407;-73
2022/12/18 00:49:29;;;;;;;63.65;24.23;;;-8.50;99.90;;;;;;4969419;28;20034;-73
2022/12/18 00:51:54;;;;;;;61.70;23.90;;;-8.50;99.90;;;;;;4973687;28;20062;-73
2022/12/18 00:54:20;;;;;;;58.67;24.02;;;-8.60;99.90;;;;;;4973327;28;20416;-72
2022/12/18 00:56:46;;;;;;;57.08;24.20;;;-8.60;99.90;;;;;;4968848;28;20423;-73
2022/12/18 00:59:15;;;;;;;52.67;23.40;;;-8.60;99.90;;;;;;4969090;28;20031;-73
2022/12/18 01:01:47;;;;;;;54.22;24.02;;;-8.60;99.90;;;;;;4971008;28;20137;-73
2022/12/18 01:04:19;;;;;;;62.80;24.75;;;-8.60;99.90;;;;;;4969097;28;20027;-73
2022/12/18 01:06:45;;;;;;;62.22;26.13;;;-8.60;99.90;;;;;;4970860;28;20379;-74
2022/12/18 01:09:13;;;;;;;57.33;23.92;;;-8.60;99.90;;;;;;4974060;28;20019;-74
2022/12/18 01:11:39;;;;;;;57.03;25.15;;;-8.60;99.90;;;;;;4970521;28;20027;-74
2022/12/18 01:14:05;;;;;;;58.05;23.65;;;-8.70;99.90;;;;;;4971599;28;20638;-73
2022/12/18 01:16:30;;;;;;;57.65;23.45;;;-8.70;99.90;;;;;;4974318;28;20050;-74
2022/12/18 01:18:56;;;;;;;53.00;22.25;;;-8.70;99.90;;;;;;4973187;28;20089;-74
2022/12/18 01:21:23;;;;;;;53.33;22.75;;;-8.70;99.90;;;;;;4987629;28;20023;-74
2022/12/18 01:23:53;;;;;;;61.53;23.38;;;-8.80;99.90;;;;;;4973710;28;20435;-72
2022/12/18 01:26:19;;;;;;;49.53;20.35;;;-8.90;99.90;;;;;;4966760;28;20035;-72
2022/12/18 01:28:45;;;;;;;46.90;21.95;;;-8.90;99.90;;;;;;4985243;28;20038;-72
2022/12/18 01:31:17;;;;;;;52.22;21.73;;;-8.90;99.90;;;;;;4971225;28;20177;-73
2022/12/18 01:33:44;;;;;;;52.55;21.50;;;-8.90;99.90;;;;;;4969859;28;20022;-73
2022/12/18 01:36:21;;;;;;;51.10;21.45;;;-9.00;99.90;;;;;;4973310;28;20042;-73
2022/12/18 01:38:47;;;;;;;58.35;23.52;;;-9.00;99.90;;;;;;4969083;28;20173;-73
2022/12/18 01:41:15;;;;;;;50.13;20.85;;;-9.00;99.90;;;;;;4970346;28;20035;-73
2022/12/18 01:43:56;;;;;;;53.83;22.25;;;-9.10;99.90;;;;;;4969227;28;20114;-73
2022/12/18 01:46:24;;;;;;;53.60;21.65;;;-9.10;99.90;;;;;;4985616;28;20057;-74
2022/12/18 01:49:01;;;;;;;50.85;21.35;;;-9.10;99.90;;;;;;4970124;28;20031;-73
2022/12/18 01:51:29;;;;;;;53.90;22.30;;;-9.10;99.90;;;;;;4965801;28;20035;-73
2022/12/18 01:53:56;;;;;;;47.80;20.63;;;-9.00;99.90;;;;;;4969660;28;20023;-74
2022/12/18 01:56:28;;;;;;;50.65;21.45;;;-9.00;99.90;;;;;;4969632;28;20042;-73
2022/12/18 01:58:55;;;;;;;52.50;21.60;;;-9.00;99.90;;;;;;4972978;28;20027;-74
2022/12/18 02:01:41;;;;;;;45.63;19.58;;;-9.00;99.90;;;;;;4967898;28;20026;-74
2022/12/18 02:04:23;;;;;;;56.35;20.92;;;-9.00;99.90;;;;;;4966179;28;20039;-74
2022/12/18 02:06:55;;;;;;;48.28;19.83;;;-8.90;99.90;;;;;;4973700;28;20023;-73
2022/12/18 02:09:37;;;;;;;45.55;20.67;;;-8.90;99.90;;;;;;4966328;28;20035;-73
2022/12/18 02:12:35;;;;;;;43.53;18.70;;;-8.90;99.90;;;;;;4969248;28;20030;-74
2022/12/18 02:15:13;;;;;;;48.45;19.95;;;-8.90;99.90;;;;;;4970267;28;20018;-74
2022/12/18 02:17:56;;;;;;;44.17;18.85;;;-8.90;99.90;;;;;;4970622;28;20494;-74
2022/12/18 02:20:32;;;;;;;50.10;20.15;;;-8.90;99.90;;;;;;4983660;28;20106;-74
2022/12/18 02:23:38;;;;;;;49.58;20.20;;;-8.90;99.90;;;;;;4967422;28;20034;-74
2022/12/18 02:26:16;;;;;;;48.13;20.02;;;-8.90;99.90;;;;;;4972828;28;20085;-74
2022/12/18 02:28:53;;;;;;;43.03;19.08;;;-8.90;99.90;;;;;;4969949;28;20039;-74
2022/12/18 02:31:36;;;;;;;50.72;19.80;;;-8.90;99.90;;;;;;4969904;28;20031;-74
2022/12/18 02:34:05;;;;;;;48.35;19.55;;;-8.90;99.90;;;;;;4971225;28;20456;-73
2022/12/18 02:36:37;;;;;;;46.60;19.20;;;-9.00;99.90;;;;;;4980955;28;20058;-73
2022/12/18 02:39:05;;;;;;;43.65;18.77;;;-9.10;99.90;;;;;;4983034;28;20031;-73
2022/12/18 02:41:31;;;;;;;45.47;18.83;;;-9.10;99.90;;;;;;4969333;28;20122;-73
2022/12/18 02:44:01;;;;;;;49.75;20.33;;;-9.10;99.90;;;;;;4972923;28;20404;-73
2022/12/18 02:46:48;;;;;;;48.63;19.20;;;-9.10;99.90;;;;;;4967274;28;20114;-73
2022/12/18 02:49:41;;;;;;;46.00;20.08;;;-9.10;99.90;;;;;;4969885;28;20322;-74
2022/12/18 02:52:21;;;;;;;49.60;20.15;;;-9.10;99.90;;;;;;4983444;28;20517;-73
2022/12/18 02:55:30;;;;;;;47.92;20.10;;;-9.00;99.90;;;;;;4968745;28;20472;-73
2022/12/18 02:57:56;;;;;;;47.83;19.23;;;-9.00;99.90;;;;;;4930406;28;20105;-75
2022/12/18 03:00:28;;;;;;;48.15;20.42;;;-9.00;99.90;;;;;;4970580;28;20031;-75
2022/12/18 03:03:11;;;;;;;47.40;19.95;;;-9.00;99.90;;;;;;4971175;28;20027;-73
2022/12/18 03:05:45;;;;;;;52.10;21.25;;;-9.00;99.90;;;;;;4970205;28;20027;-73
2022/12/18 03:08:34;;;;;;;51.53;21.25;;;-9.00;99.90;;;;;;4979938;28;20631;-73
2022/12/18 03:11:10;;;;;;;48.30;21.23;;;-9.10;99.90;;;;;;4969312;28;20036;-72
2022/12/18 03:13:51;;;;;;;54.58;20.40;;;-9.00;99.90;;;;;;4966557;28;20038;-73
2022/12/18 03:16:25;;;;;;;48.50;19.48;;;-9.00;99.90;;;;;;4967956;28;20069;-74
2022/12/18 03:19:06;;;;;;;48.78;19.40;;;-9.00;99.90;;;;;;4968843;28;20094;-74
2022/12/18 03:21:45;;;;;;;45.65;20.00;;;-9.00;99.90;;;;;;4972036;28;20189;-74
2022/12/18 03:24:11;;;;;;;44.10;20.13;;;-9.00;99.90;;;;;;4968089;28;20070;-74
2022/12/18 03:26:43;;;;;;;43.08;19.42;;;-9.00;99.90;;;;;;4969412;28;20084;-73
2022/12/18 03:29:15;;;;;;;51.90;20.05;;;-8.90;99.90;;;;;;4981737;28;20077;-74
2022/12/18 03:31:47;;;;;;;40.17;18.48;;;-8.90;99.90;;;;;;4971942;28;20507;-74
2022/12/18 03:34:23;;;;;;;46.65;19.38;;;-8.90;99.90;;;;;;4972019;28;20069;-74
2022/12/18 03:36:49;;;;;;;47.00;21.08;;;-8.90;99.90;;;;;;4968719;28;20027;-75
2022/12/18 03:39:14;;;;;;;46.53;17.88;;;-8.90;99.90;;;;;;4966128;28;20027;-73
2022/12/18 03:41:45;;;;;;;48.50;21.52;;;-9.00;99.90;;;;;;4973841;28;20058;-73
2022/12/18 03:44:45;;;;;;;45.22;19.63;;;-9.00;99.90;;;;;;4966584;28;20042;-74
2022/12/18 03:47:15;;;;;;;52.55;21.13;;;-9.00;99.90;;;;;;4984040;28;20057;-74
2022/12/18 03:49:47;;;;;;;45.85;20.45;;;-9.00;99.90;;;;;;4970588;28;20395;-74
2022/12/18 03:52:50;;;;;;;54.28;19.02;;;-9.00;99.90;;;;;;4967946;28;20546;-73
2022/12/18 03:55:17;;;;;;;42.67;19.42;;;-9.00;99.90;;;;;;4965159;28;20062;-74
2022/12/18 03:57:45;;;;;;;50.75;19.10;;;-9.00;99.90;;;;;;4969294;28;20098;-74
2022/12/18 04:00:14;;;;;;;51.47;19.50;;;-9.10;99.90;;;;;;4968201;28;20122;-74
2022/12/18 04:02:50;;;;;;;54.55;20.33;;;-9.10;99.90;;;;;;4970143;28;20023;-75
2022/12/18 04:05:17;;;;;;;46.95;19.15;;;-9.10;99.90;;;;;;4968552;28;20460;-75
2022/12/18 04:07:49;;;;;;;48.58;20.35;;;-9.10;99.90;;;;;;4970024;28;20090;-75
2022/12/18 04:10:16;;;;;;;47.75;20.25;;;-9.10;99.90;;;;;;4966278;28;20035;-74
2022/12/18 04:13:02;;;;;;;47.55;19.70;;;-9.10;99.90;;;;;;4970650;28;20057;-75
2022/12/18 04:15:34;;;;;;;49.20;20.02;;;-9.10;99.90;;;;;;4970651;28;20047;-75
2022/12/18 04:18:03;;;;;;;52.85;20.83;;;-9.10;99.90;;;;;;4970615;28;20046;-75
2022/12/18 04:20:29;;;;;;;52.42;21.55;;;-9.10;99.90;;;;;;4968597;28;20027;-75
2022/12/18 04:22:54;;;;;;;52.95;21.05;;;-9.10;99.90;;;;;;4990372;23;20048;-75
2022/12/18 04:25:23;;;;;;;48.50;19.60;;;-9.10;99.90;;;;;;5014338;28;20029;-75
2022/12/18 04:27:51;;;;;;;49.47;20.52;;;-9.10;99.90;;;;;;5014508;28;20026;-76
2022/12/18 04:30:17;;;;;;;50.50;19.77;;;-9.10;99.90;;;;;;5015746;28;20088;-75
2022/12/18 04:32:43;;;;;;;55.33;19.35;;;-9.10;99.90;;;;;;5015482;28;20054;-75
2022/12/18 04:35:10;;;;;;;52.17;19.65;;;-9.10;99.90;;;;;;5014052;28;20025;-75
2022/12/18 04:37:36;;;;;;;43.90;20.38;;;-9.00;99.90;;;;;;5015258;28;20026;-75
2022/12/18 04:40:02;;;;;;;44.35;19.30;;;-9.00;99.90;;;;;;5013735;28;20544;-74
2022/12/18 04:42:27;;;;;;;44.22;18.63;;;-9.00;99.90;;;;;;5015002;28;20029;-75
2022/12/18 04:44:53;;;;;;;46.53;20.58;;;-9.00;99.90;;;;;;5013812;28;20041;-74
2022/12/18 04:47:18;;;;;;;47.20;20.13;;;-8.90;99.90;;;;;;5015063;28;20079;-74
2022/12/18 04:49:44;;;;;;;55.38;20.27;;;-8.90;99.90;;;;;;5013457;28;20099;-74
2022/12/18 04:52:12;;;;;;;56.90;20.95;;;-8.90;99.90;;;;;;5015219;28;20022;-75
2022/12/18 04:54:38;;;;;;;45.90;19.27;;;-8.90;99.90;;;;;;5015027;28;20053;-75
2022/12/18 04:57:04;;;;;;;50.80;19.85;;;-8.90;99.90;;;;;;5015065;28;20045;-75
2022/12/18 04:59:29;;;;;;;45.53;19.10;;;-8.90;99.90;;;;;;5013401;28;20122;-75
2022/12/18 05:01:55;;;;;;;62.08;21.10;;;-9.00;99.90;;;;;;5014779;28;20026;-75
2022/12/18 05:04:23;;;;;;;50.22;20.92;;;-8.90;99.90;;;;;;5013426;28;20394;-75
2022/12/18 05:06:52;;;;;;;50.25;20.85;;;-9.00;99.90;;;;;;5010665;28;20101;-75
2022/12/18 05:09:20;;;;;;;50.95;20.80;;;-9.00;99.90;;;;;;5013572;28;20049;-75
2022/12/18 05:11:46;;;;;;;45.20;18.55;;;-9.00;99.90;;;;;;5013417;28;20029;-75
2022/12/18 05:14:12;;;;;;;42.38;16.90;;;-9.00;99.90;;;;;;5014623;28;20018;-74
2022/12/18 05:16:41;;;;;;;44.17;18.02;;;-9.00;99.90;;;;;;5014606;28;20018;-74
2022/12/18 05:19:07;;;;;;;41.60;17.55;;;-9.10;99.90;;;;;;5014532;28;20479;-75
2022/12/18 05:21:32;;;;;;;40.72;16.25;;;-9.10;99.90;;;;;;5014404;28;20097;-75
2022/12/18 05:24:01;;;;;;;44.75;18.13;;;-9.10;99.90;;;;;;5008367;28;20072;-75
2022/12/18 05:26:26;;;;;;;45.95;17.13;;;-9.10;99.90;;;;;;5006744;28;20441;-76
2022/12/18 05:29:01;;;;;;;44.13;17.02;;;-9.10;99.90;;;;;;5010255;28;20021;-76
2022/12/18 05:31:27;;;;;;;46.63;18.92;;;-9.20;99.90;;;;;;5011441;28;20111;-76
2022/12/18 05:33:55;;;;;;;39.92;18.40;;;-9.20;99.90;;;;;;5018324;28;20104;-75
2022/12/18 05:36:26;;;;;;;47.33;17.70;;;-9.20;99.90;;;;;;5025463;28;20479;-75
2022/12/18 05:38:58;;;;;;;40.58;16.27;;;-9.20;99.90;;;;;;5012635;28;20507;-75
2022/12/18 05:41:27;;;;;;;40.45;18.50;;;-9.30;99.90;;;;;;4999972;28;20453;-76
2022/12/18 05:43:58;;;;;;;39.72;15.93;;;-9.30;99.90;;;;;;5000115;28;20022;-75
2022/12/18 05:46:30;;;;;;;46.95;18.83;;;-9.30;99.90;;;;;;5011546;28;20426;-76
2022/12/18 05:49:01;;;;;;;42.60;18.23;;;-9.30;99.90;;;;;;5004662;28;20022;-76
2022/12/18 05:51:31;;;;;;;44.13;17.63;;;-9.30;99.90;;;;;;5009845;28;20442;-76
2022/12/18 05:53:56;;;;;;;44.53;17.92;;;-9.30;99.90;;;;;;5008951;28;20036;-76
2022/12/18 05:56:22;;;;;;;41.47;18.48;;;-9.40;99.90;;;;;;5010869;28;20586;-76
2022/12/18 05:58:52;;;;;;;39.95;17.60;;;-9.40;99.90;;;;;;5008664;28;20034;-76
2022/12/18 06:01:22;;;;;;;42.83;18.77;;;-9.50;99.90;;;;;;5011801;28;20108;-75
2022/12/18 06:03:48;;;;;;;44.30;18.75;;;-9.50;99.90;;;;;;5009639;28;20505;-76
2022/12/18 06:06:15;;;;;;;46.70;18.35;;;-9.60;99.90;;;;;;5011945;28;20065;-75
2022/12/18 06:08:41;;;;;;;44.35;19.38;;;-9.60;99.90;;;;;;5010734;28;20041;-75
2022/12/18 06:11:09;;;;;;;45.50;18.55;;;-9.60;99.90;;;;;;5012248;28;20437;-75
2022/12/18 06:13:38;;;;;;;41.55;17.60;;;-9.70;99.90;;;;;;5015266;28;20403;-75
2022/12/18 06:16:05;;;;;;;46.95;18.65;;;-9.70;99.90;;;;;;5009197;28;20026;-75
2022/12/18 06:18:34;;;;;;;43.50;17.00;;;-9.70;99.90;;;;;;5015810;28;20528;-79
2022/12/18 06:21:00;;;;;;;43.20;18.50;;;-9.70;99.90;;;;;;5016839;28;20030;-77
2022/12/18 06:23:29;;;;;;;43.67;18.60;;;-9.70;99.90;;;;;;5014609;28;20405;-77
2022/12/18 06:25:57;;;;;;;49.42;19.45;;;-9.70;99.90;;;;;;5013409;28;20034;-76
2022/12/18 06:28:29;;;;;;;49.63;18.63;;;-9.70;99.90;;;;;;5013254;28;20052;-74
2022/12/18 06:30:55;;;;;;;47.10;17.83;;;-9.70;99.90;;;;;;5011273;28;20034;-75
2022/12/18 06:33:27;;;;;;;46.58;18.58;;;-9.70;99.90;;;;;;5007903;28;20022;-75
2022/12/18 06:36:03;;;;;;;43.00;19.00;;;-9.70;99.90;;;;;;5021208;28;20116;-75
2022/12/18 06:38:29;;;;;;;50.08;18.55;;;-9.70;99.90;;;;;;5012605;28;20025;-76
2022/12/18 06:40:58;;;;;;;38.85;16.42;;;-9.70;99.90;;;;;;5013190;28;20513;-76
2022/12/18 06:43:26;;;;;;;40.67;16.15;;;-9.70;99.90;;;;;;5008144;28;20030;-76
2022/12/18 06:45:59;;;;;;;44.25;16.63;;;-9.70;99.90;;;;;;5002015;28;20076;-76
2022/12/18 06:48:37;;;;;;;;;;;-9.70;99.90;;;;;;5014340;28;20025;-76
2022/12/18 06:51:06;;;;;;;40.22;16.45;;;-9.70;99.90;;;;;;5014537;28;20000;-76
2022/12/18 06:53:33;;;;;;;40.58;16.42;;;-9.70;99.90;;;;;;5011788;28;20034;-76
2022/12/18 06:56:02;;;;;;;38.65;16.33;;;-9.70;99.90;;;;;;5006172;28;20027;-75
2022/12/18 06:58:28;;;;;;;40.00;17.77;;;-9.70;99.90;;;;;;5004215;28;20108;-76
2022/12/18 07:01:07;;;;;;;42.20;17.13;;;-9.70;99.90;;;;;;5010879;28;20049;-76
2022/12/18 07:03:33;;;;;;;44.33;17.60;;;-9.70;99.90;;;;;;5014642;28;20125;-76
2022/12/18 07:06:02;;;;;;;46.50;17.65;;;-9.70;99.90;;;;;;5010923;28;20081;-77
2022/12/18 07:08:32;;;;;;;42.67;16.67;;;-9.70;99.90;;;;;;5009579;28;20026;-76
2022/12/18 07:10:57;;;;;;;41.97;17.27;;;-9.70;99.90;;;;;;5009597;28;20726;-76
2022/12/18 07:13:29;;;;;;;50.03;17.30;;;-9.80;99.90;;;;;;5007679;28;20033;-76
2022/12/18 07:15:55;;;;;;;47.83;19.35;;;-9.80;99.90;;;;;;5008788;28;20483;-76
2022/12/18 07:18:20;;;;;;;45.65;18.27;;;-9.70;99.90;;;;;;5011083;28;20022;-76
2022/12/18 07:20:46;;;;;;;48.88;18.98;;;-9.70;99.90;;;;;;5011336;28;20478;-77
2022/12/18 07:23:17;;;;;;;47.67;18.90;;;-9.70;99.90;;;;;;5010821;28;20110;-77
2022/12/18 07:25:43;;;;;;;57.10;23.40;;;-9.70;99.90;;;;;;5012096;28;20034;-77
2022/12/18 07:28:09;;;;;;;56.60;24.88;;;-9.60;99.90;;;;;;5009579;28;20030;-76
2022/12/18 07:30:37;;;;;;;44.60;18.85;;;-9.60;99.90;;;;;;5011470;28;20033;-76
2022/12/18 07:33:03;;;;;;;42.17;17.50;;;-9.60;99.90;;;;;;5011563;28;20022;-77
2022/12/18 07:35:28;;;;;;;47.83;19.58;;;-9.60;99.90;;;;;;5014338;28;20109;-76
2022/12/18 07:37:54;;;;;;;41.92;18.20;;;-9.60;99.90;;;;;;5010463;28;20023;-76
2022/12/18 07:40:22;;;;;;;51.00;19.70;;;-9.60;99.90;;;;;;5009082;28;20033;-76
2022/12/18 07:42:48;;;;;;;40.42;17.35;;;-9.60;99.90;;;;;;5014767;28;20037;-77
2022/12/18 07:45:14;;;;;;;47.17;18.48;;;-9.60;99.90;;;;;;5010523;28;20386;-77
2022/12/18 07:47:41;;;;;;;38.60;17.15;;;-9.60;99.90;;;;;;5017764;28;20037;-77
2022/12/18 07:50:11;;;;;;;47.72;19.85;;;-9.60;99.90;;;;;;5012639;28;20437;-77
2022/12/18 07:52:46;;;;;;;49.22;18.70;;;-9.60;99.90;;;;;;5017404;28;20026;-77
2022/12/18 07:55:12;;;;;;;49.65;19.88;;;-9.50;99.90;;;;;;5019760;28;20089;-75
2022/12/18 07:57:48;;;;;;;45.47;18.58;;;-9.50;99.90;;;;;;5015509;28;20430;-75
2022/12/18 08:00:14;;;;;;;50.08;21.23;;;-9.50;99.90;;;;;;5019451;28;20029;-77
2022/12/18 08:02:43;;;;;;;42.30;19.08;;;-9.50;99.90;;;;;;5020209;28;20483;-75
2022/12/18 08:05:08;;;;;;;44.38;17.77;;;-9.50;99.90;;;;;;5024444;28;20030;-75
2022/12/18 08:07:43;;;;;;;42.33;17.55;;;-9.50;99.90;;;;;;5020113;28;20524;-76
2022/12/18 08:10:09;;;;;;;40.80;17.70;;;-9.50;99.90;;;;;;5017452;28;20033;-77
2022/12/18 08:12:40;;;;;;;50.65;22.63;;;-9.50;99.90;;;;;;5017627;28;20474;-76
2022/12/18 08:15:06;;;;;;;59.60;25.65;;;-9.40;99.90;;;;;;5018630;28;20580;-77
2022/12/18 08:17:38;;;;;;;54.70;23.63;;;-9.40;99.90;;;;;;5015829;28;20017;-76
2022/12/18 08:20:07;;;;;;;42.53;21.52;;;-9.40;99.90;;;;;;5021061;28;20034;-77
2022/12/18 08:22:48;;;;;;;50.97;20.65;;;-9.40;99.90;;;;;;5017892;28;20053;-76
2022/12/18 08:25:14;;;;;;;55.88;19.10;;;-9.40;99.90;;;;;;5021849;28;20029;-76
2022/12/18 08:27:42;;;;;;;51.45;20.85;;;-9.40;99.90;;;;;;5019612;28;20088;-76
2022/12/18 08:30:11;;;;;;;47.13;19.63;;;-9.40;99.90;;;;;;5019810;28;20030;-75
2022/12/18 08:32:37;;;;;;;45.92;20.00;;;-9.40;99.90;;;;;;5020535;28;20032;-78
2022/12/18 08:35:02;;;;;;;40.97;18.13;;;-9.40;99.90;;;;;;5020653;28;20562;-75
2022/12/18 08:37:28;;;;;;;45.53;19.40;;;-9.40;99.90;;;;;;5019615;28;20030;-74
2022/12/18 08:39:54;;;;;;;49.25;18.80;;;-9.40;99.90;;;;;;5016394;28;20026;-75
2022/12/18 08:45:13;;;;;;;44.33;18.20;;;-9.30;99.90;;;;;;5021807;28;20092;-76
2022/12/18 08:47:38;;;;;;;47.90;18.65;;;-9.30;99.90;;;;;;5017782;28;20037;-76
2022/12/18 08:50:09;;;;;;;48.53;19.95;;;-9.30;99.90;;;;;;5020233;28;20076;-77
2022/12/18 08:52:34;;;;;;;52.90;21.20;;;-9.30;99.90;;;;;;5017751;28;20026;-76
2022/12/18 08:55:00;;;;;;;54.28;22.42;;;-9.30;99.90;;;;;;5021439;28;20455;-76
2022/12/18 08:57:25;;;;;;;59.70;26.67;;;-9.20;99.90;;;;;;5015813;28;20068;-74
2022/12/18 08:59:54;;;;;;;57.60;23.60;;;-9.20;99.90;;;;;;5021958;28;20033;-75
2022/12/18 09:02:20;;;;;;;51.35;22.08;;;-9.10;99.90;;;;;;5021530;28;20105;-75
2022/12/18 09:04:47;;;;;;;54.45;22.63;;;-9.10;99.90;;;;;;5019070;28;20065;-75
2022/12/18 09:07:13;;;;;;;47.63;22.05;;;-9.00;99.90;;;;;;5017217;28;20092;-75
2022/12/18 09:09:41;;;;;;;45.75;21.52;;;-9.00;99.90;;;;;;5021760;28;20430;-75
2022/12/18 09:12:07;;;;;;;48.30;21.55;;;-8.90;99.90;;;;;;5021595;28;20030;-75
2022/12/18 09:14:33;;;;;;;53.72;24.15;;;-8.80;99.90;;;;;;5022048;28;20558;-76
2022/12/18 09:16:58;;;;;;;51.30;21.95;;;-8.80;99.90;;;;;;5023422;28;20014;-77
2022/12/18 09:19:24;;;;;;;48.22;21.33;;;-8.70;99.90;;;;;;5020002;28;20030;-76
2022/12/18 09:21:50;;;;;;;48.53;21.17;;;-8.60;99.90;;;;;;5006729;28;20033;-77
2022/12/18 09:24:16;;;;;;;53.78;21.90;;;-8.60;99.90;;;;;;5019055;28;20021;-76
2022/12/18 09:26:42;;;;;;;49.90;20.92;;;-8.50;99.90;;;;;;5023375;28;20018;-75
2022/12/18 09:29:08;;;;;;;52.67;21.13;;;-8.40;99.90;;;;;;5037211;28;20021;-75
2022/12/18 09:31:35;;;;;;;49.90;20.80;;;-8.40;99.90;;;;;;5029777;28;20498;-75
2022/12/18 09:34:01;;;;;;;42.88;18.90;;;-8.40;99.90;;;;;;5018662;28;20120;-76
2022/12/18 09:36:27;;;;;;;50.55;19.77;;;-8.30;99.90;;;;;;5019415;28;20053;-74
2022/12/18 09:38:53;;;;;;;52.72;22.33;;;-8.20;99.90;;;;;;5018518;28;20022;-74
2022/12/18 09:41:42;;;;;;;55.63;23.13;;;-8.10;99.90;;;;;;5017739;28;20036;-74
2022/12/18 09:44:15;;;;;;;49.20;22.67;;;-8.00;99.90;;;;;;5017637;28;20033;-75
2022/12/18 09:46:47;;;;;;;57.47;24.03;;;-8.00;99.90;;;;;;5019102;28;20034;-76
2022/12/18 09:49:16;;;;;;;49.60;23.80;;;-7.90;99.90;;;;;;5017303;28;20279;-75
2022/12/18 09:51:49;;;;;;;57.03;23.25;;;-7.80;99.90;;;;;;5018130;28;20033;-75
2022/12/18 09:54:21;;;;;;;;;;;-7.70;99.90;;;;;;5017743;28;20032;-74
2022/12/18 09:56:47;;;;;;;46.40;20.55;;;-7.60;99.90;;;;;;5013390;28;20008;-75
2022/12/18 09:59:35;;;;;;;54.60;23.55;;;-7.50;99.90;;;;;;5018943;28;20121;-75
2022/12/18 10:02:16;;;;;;;58.28;24.33;;;-7.50;99.90;;;;;;5019271;28;20025;-74
2022/12/18 10:04:42;;;;;;;61.13;24.92;;;-7.40;99.90;;;;;;5018510;28;20061;-75
2022/12/18 10:07:19;;;;;;;58.03;22.67;;;-7.30;99.90;;;;;;5019157;28;20025;-75
2022/12/18 10:10:19;;;;;;;55.90;24.17;;;-7.20;99.90;;;;;;5019668;28;20022;-76
2022/12/18 10:12:56;;;;;;;52.60;22.58;;;-7.10;99.90;;;;;;5017052;28;20046;-76
2022/12/18 10:15:47;;;;;;;60.97;22.05;;;-7.00;99.90;;;;;;4999219;28;20026;-76
2022/12/18 10:18:48;;;;;;;61.75;23.25;;;-6.90;99.90;;;;;;5001000;28;20676;-75
2022/12/18 10:21:23;;;;;;;56.42;19.17;;;-6.70;99.90;;;;;;5007774;28;20041;-76
2022/12/18 10:23:58;;;;;;;57.45;21.40;;;-6.40;99.90;;;;;;5013179;23;20042;-73
2022/12/18 10:26:24;;;;;;;65.43;20.98;;;-6.20;99.90;;;;;;4969568;28;20050;-71
2022/12/18 10:28:52;;;;;;;51.60;19.20;;;-5.80;99.90;;;;;;4970026;28;20511;-72
2022/12/18 10:31:21;;;;;;;60.92;21.90;;;-5.60;99.90;;;;;;4969867;28;20027;-73
2022/12/18 10:33:47;;;;;;;50.00;19.85;;;-5.40;99.90;;;;;;4959110;28;20039;-73
2022/12/18 10:36:13;;;;;;;59.17;22.17;;;-5.30;99.90;;;;;;4949974;28;20079;-72
2022/12/18 10:38:39;;;;;;;56.65;23.08;;;-5.20;99.90;;;;;;4951303;28;20023;-72
2022/12/18 10:41:26;;;;;;;52.67;21.15;;;-5.20;99.90;;;;;;4952356;28;20141;-72
2022/12/18 10:44:12;;;;;;;53.72;19.10;;;-5.20;99.90;;;;;;4954283;28;20039;-72
2022/12/18 10:46:42;;;;;;;60.47;20.10;;;-5.00;99.90;;;;;;4956051;28;20057;-73
2022/12/18 10:49:19;;;;;;;50.72;18.80;;;-4.90;99.90;;;;;;4953538;28;20030;-73
2022/12/18 10:51:48;;;;;;;63.03;19.52;;;-4.60;99.90;;;;;;4953892;28;20041;-74
2022/12/18 10:54:18;;;;;;;52.83;18.75;;;-4.50;99.90;;;;;;4949399;28;20653;-73
2022/12/18 10:56:45;;;;;;;51.13;18.27;;;-4.40;99.90;;;;;;4950889;28;20025;-74
2022/12/18 10:59:13;;;;;;;57.85;19.70;;;-4.20;99.90;;;;;;4949108;28;20027;-73
2022/12/18 11:01:55;;;;;;;56.28;21.98;;;-4.10;99.90;;;;;;4949947;28;20076;-74
2022/12/18 11:04:26;;;;;;;53.97;18.67;;;-4.00;99.90;;;;;;4951611;28;20632;-74
2022/12/18 11:06:55;;;;;;;53.25;21.23;;;-4.00;99.90;;;;;;4948029;28;20023;-74
2022/12/18 11:09:24;;;;;;;55.40;21.48;;;-4.00;99.90;;;;;;4953750;28;20078;-73
2022/12/18 11:11:55;;;;;;;57.60;21.90;;;-4.00;99.90;;;;;;4954421;28;20034;-72
2022/12/18 11:14:27;;;;;;;60.78;25.75;;;-3.90;99.90;;;;;;4954929;28;20706;-73
2022/12/18 11:17:00;;;;;;;56.60;20.77;;;-4.00;99.90;;;;;;4947290;28;20031;-73
2022/12/18 11:19:37;;;;;;;58.97;23.08;;;-4.00;99.90;;;;;;4942026;28;20031;-74
2022/12/18 11:22:34;;;;;;;53.83;23.17;;;-3.90;99.90;;;;;;4947066;28;20411;-74
2022/12/18 11:24:59;;;;;;;49.03;22.75;;;-3.90;99.90;;;;;;4947475;28;20396;-74
2022/12/18 11:27:26;;;;;;;56.08;21.48;;;-3.90;99.90;;;;;;4949696;28;20054;-73
2022/12/18 11:30:09;;;;;;;62.20;27.05;;;-3.90;99.90;;;;;;4941288;28;20031;-74
2022/12/18 11:32:45;;;;;;;65.55;26.42;;;-4.00;99.90;;;;;;4946737;28;20141;-75
2022/12/18 11:35:51;;;;;;;56.00;24.77;;;-4.00;99.90;;;;;;4957119;28;20039;-73
2022/12/18 11:38:26;;;;;;;63.22;25.25;;;-4.00;99.90;;;;;;4941636;28;20133;-73
2022/12/18 11:41:04;;;;;;;56.38;22.63;;;-4.10;99.90;;;;;;4960059;28;20110;-73
2022/12/18 11:43:58;;;;;;;58.63;25.30;;;-4.10;99.90;;;;;;4956312;28;20035;-72
2022/12/18 11:46:37;;;;;;;;;;;-4.10;99.90;;;;;;4953937;28;20447;-74
2022/12/18 11:49:35;;;;;;;57.58;23.52;;;-4.10;99.90;;;;;;4954818;28;19910;-73
2022/12/18 11:52:16;;;;;;;58.22;25.25;;;-4.00;99.90;;;;;;4945581;28;20035;-74
2022/12/18 11:54:45;;;;;;;59.45;26.98;;;-3.90;99.90;;;;;;4951040;28;20031;-74
2022/12/18 11:57:28;;;;;;;59.20;27.08;;;-3.90;99.90;;;;;;4953361;28;20038;-74
2022/12/18 12:00:13;;;;;;;69.70;26.67;;;-3.80;99.90;;;;;;4949458;28;20019;-74
2022/12/18 12:02:57;;;;;;;57.50;22.65;;;-3.70;99.90;;;;;;4953047;28;20031;-75
2022/12/18 12:05:41;;;;;;;48.85;20.67;;;-3.60;99.90;;;;;;4946839;28;20093;-73
2022/12/18 12:08:14;;;;;;;49.47;19.58;;;-3.40;99.90;;;;;;4949909;28;20027;-72
2022/12/18 12:11:16;;;;;;;47.38;18.48;;;-3.30;99.90;;;;;;4953737;28;20110;-75
2022/12/18 12:13:51;;;;;;;50.30;19.98;;;-3.10;99.90;;;;;;4949085;28;20046;-74
2022/12/18 12:16:24;;;;;;;41.65;16.95;;;-3.00;99.90;;;;;;4949246;28;20035;-73
2022/12/18 12:18:50;;;;;;;;;;;-2.90;99.90;;;;;;4948041;28;20098;-74
2022/12/18 12:21:28;;;;;;;59.25;23.77;;;-2.70;99.90;;;;;;4951750;28;20794;-73
2022/12/18 12:24:14;;;;;;;53.70;22.23;;;-2.70;99.90;;;;;;4951599;28;20255;-74
2022/12/18 12:27:12;;;;;;;60.55;22.90;;;-2.70;99.90;;;;;;4955097;29;20034;-75
2022/12/18 12:29:50;;;;;;;54.90;20.10;;;-2.80;99.90;;;;;;4956291;28;20038;-75
2022/12/18 12:32:50;;;;;;;46.17;19.17;;;-2.80;99.90;;;;;;4956822;28;20042;-74
2022/12/18 12:35:51;;;;;;;49.50;20.52;;;-2.70;99.90;;;;;;4954519;28;20368;-75
2022/12/18 12:38:46;;;;;;;38.13;16.27;;;-2.60;99.90;;;;;;4934146;29;20036;-73
2022/12/18 12:44:09;;;;;;;52.60;22.40;;;-2.50;99.90;;;;;;4955181;28;20507;-74
2022/12/18 12:46:44;;;;;;;48.75;21.33;;;-2.50;99.90;;;;;;4946248;28;20480;-73
2022/12/18 12:49:18;;;;;;;46.75;20.83;;;-2.50;99.90;;;;;;4952366;28;20038;-75
2022/12/18 12:51:50;;;;;;;45.95;19.77;;;-2.70;99.90;;;;;;4949431;28;20031;-75
2022/12/18 12:54:21;;;;;;;51.83;21.48;;;-2.70;99.90;;;;;;4952855;28;20035;-74
2022/12/18 12:57:04;;;;;;;50.47;21.42;;;-2.80;99.90;;;;;;4953921;28;20023;-75
2022/12/18 12:59:36;;;;;;;48.88;20.42;;;-2.90;99.90;;;;;;4948064;28;20027;-75
2022/12/18 13:02:10;;;;;;;59.80;22.73;;;-3.00;99.90;;;;;;4949172;28;20118;-73